Time;durP1;ratioP1;P1;durP2;ratioP2;P2;SDS_P1;SDS_P2;PMS_P1;PMS_P2;Temp;Humidity;BMP_temperature;BMP_pressure;BME280_temperature;BME280_humidity;BME280_pressure;Samples;Min_cycle;Max_cycle;Signal;HPM_P1;HPM_P2
2022/06/02 00:00:53;;;;;;;11.90;5.60;;;;;;;17.85;48.74;98956.40;233149;1217;138555;-62
2022/06/02 00:06:47;;;;;;;9.40;5.00;;;;;;;17.78;48.78;98951.45;233410;1217;139197;-62
2022/06/02 00:12:02;;;;;;;9.80;5.00;;;;;;;17.72;48.98;98949.59;233383;1217;139225;-62
2022/06/02 00:17:24;;;;;;;10.00;5.20;;;;;;;17.69;49.07;98943.79;233333;1217;141171;-62
2022/06/02 00:22:41;;;;;;;10.60;5.40;;;;;;;17.69;49.36;98953.69;233366;1217;140172;-61
2022/06/02 00:28:14;;;;;;;12.40;5.40;;;;;;;17.69;49.36;98952.46;233383;1215;140022;-62
2022/06/02 00:33:55;;;;;;;10.70;5.30;;;;;;;17.74;49.44;98953.73;233406;1217;139691;-62
2022/06/02 00:38:59;;;;;;;10.70;5.70;;;;;;;17.82;49.87;98951.31;233421;1217;139435;-63
2022/06/02 00:44:32;;;;;;;13.30;5.90;;;;;;;17.84;49.97;98946.46;233592;1217;139577;-63
2022/06/02 00:49:58;;;;;;;14.40;6.00;;;;;;;17.88;49.96;98948.40;232562;1217;139099;-63
2022/06/02 01:00:43;;;;;;;10.80;5.40;;;;;;;17.90;50.00;98954.85;233438;1217;125288;-63
2022/06/02 01:06:23;;;;;;;9.10;5.50;;;;;;;17.96;50.05;98971.68;233329;1217;139400;-59
2022/06/02 01:11:38;;;;;;;8.70;4.50;;;;;;;18.00;49.92;99027.14;233384;1217;138422;-60
2022/06/02 01:16:55;;;;;;;7.40;3.90;;;;;;;17.93;50.03;99015.36;233543;1217;139255;-61
2022/06/02 01:22:45;;;;;;;7.30;4.10;;;;;;;17.95;50.49;99012.69;233612;1217;138548;-61
2022/06/02 01:27:54;;;;;;;7.80;3.60;;;;;;;17.92;51.20;99009.73;233218;1219;141909;-61
2022/06/02 01:33:19;;;;;;;5.90;3.30;;;;;;;17.87;51.59;98990.14;233497;1217;138837;-64
2022/06/02 01:38:45;;;;;;;4.50;3.00;;;;;;;17.86;51.72;98972.91;233682;1217;138764;-61
2022/06/02 01:44:00;;;;;;;4.20;2.50;;;;;;;17.93;52.10;98983.30;233460;1217;141551;-64
2022/06/02 01:49:16;;;;;;;6.10;2.70;;;;;;;17.94;52.50;98991.04;233614;1217;139517;-67
2022/06/02 01:54:35;;;;;;;5.90;2.90;;;;;;;17.97;52.47;99010.71;233396;1217;139524;-65
2022/06/02 02:00:06;;;;;;;7.70;3.30;;;;;;;18.02;52.50;99027.91;233506;1217;138858;-68
2022/06/02 02:05:23;;;;;;;7.80;3.30;;;;;;;18.04;52.80;99026.77;233306;1219;139753;-60
2022/06/02 02:11:00;;;;;;;5.40;3.20;;;;;;;18.05;52.94;99021.16;233312;1219;138834;-60
2022/06/02 02:16:11;;;;;;;6.10;3.50;;;;;;;18.11;53.14;99030.20;233559;1217;139178;-62
2022/06/02 02:21:15;;;;;;;5.70;3.50;;;;;;;18.17;53.37;99015.14;233451;1217;139691;-61
2022/06/02 02:26:33;;;;;;;5.20;3.50;;;;;;;18.27;53.46;99009.33;233529;1217;139041;-61
2022/06/02 02:31:53;;;;;;;6.60;3.80;;;;;;;18.32;53.47;98999.17;233488;1217;140977;-61
2022/06/02 02:37:08;;;;;;;6.70;3.60;;;;;;;18.37;53.54;99008.41;233490;1217;139512;-61
2022/06/02 02:42:18;;;;;;;5.50;3.50;;;;;;;18.38;53.72;99026.79;233438;1217;140219;-60
2022/06/02 02:47:29;;;;;;;5.80;3.30;;;;;;;18.38;53.66;99032.01;233519;1217;138585;-65
2022/06/02 02:53:11;;;;;;;5.40;3.70;;;;;;;18.37;53.86;99033.51;233570;1217;138971;-64
2022/06/02 02:58:26;;;;;;;6.30;3.80;;;;;;;18.32;53.92;99032.20;233058;1217;138757;-62
2022/06/02 03:03:39;;;;;;;6.10;3.40;;;;;;;18.30;53.98;99040.73;233463;1217;139313;-63
2022/06/02 03:08:59;;;;;;;7.90;3.80;;;;;;;18.26;54.34;99057.25;233592;1215;140025;-64
2022/06/02 03:14:02;;;;;;;5.60;3.60;;;;;;;18.25;54.43;99071.36;233507;1217;138833;-65
2022/06/02 03:19:22;;;;;;;5.20;3.50;;;;;;;18.24;54.95;99056.48;233449;1217;139886;-64
2022/06/02 03:24:56;;;;;;;5.80;3.70;;;;;;;18.26;55.41;99046.63;233461;1217;138809;-63
2022/06/02 03:30:14;;;;;;;46.30;35.20;;;;;;;18.25;55.50;99034.31;233530;1215;140245;-62
2022/06/02 03:35:40;;;;;;;11.10;4.60;;;;;;;18.30;55.89;99026.89;232939;1217;139642;-62
2022/06/02 03:41:20;;;;;;;86.10;71.10;;;;;;;18.26;56.04;99019.14;233413;1217;141219;-60
2022/06/02 03:47:06;;;;;;;8.50;5.20;;;;;;;18.22;56.27;99024.70;233472;1217;139108;-62
2022/06/02 03:52:27;;;;;;;6.50;4.20;;;;;;;18.18;56.32;99025.77;233375;1219;138825;-61
2022/06/02 03:57:35;;;;;;;6.30;3.50;;;;;;;18.14;56.47;99044.66;233434;1217;139299;-63
2022/06/02 04:02:49;;;;;;;6.60;3.90;;;;;;;18.13;56.67;99065.72;233440;1217;139577;-63
2022/06/02 04:08:18;;;;;;;5.80;3.80;;;;;;;18.19;57.16;99066.08;233348;1217;138934;-65
2022/06/02 04:13:39;;;;;;;7.10;3.90;;;;;;;18.19;57.32;99045.88;233339;1217;139528;-64
2022/06/02 04:18:59;;;;;;;85.40;68.80;;;;;;;18.14;57.11;99058.19;233481;1215;138968;-64
2022/06/02 04:24:31;;;;;;;6.20;4.40;;;;;;;18.14;57.68;99060.61;233493;1217;139079;-65
2022/06/02 04:29:37;;;;;;;5.90;3.80;;;;;;;18.08;57.59;99063.95;233630;1217;139772;-64
2022/06/02 04:34:42;;;;;;;4.60;3.50;;;;;;;18.02;57.60;99073.30;233503;1217;139613;-64
2022/06/02 04:39:56;;;;;;;5.10;3.50;;;;;;;18.01;57.68;99075.85;233408;1217;139210;-64
2022/06/02 04:45:14;;;;;;;7.90;4.00;;;;;;;18.01;57.78;99076.23;233433;1217;139237;-63
2022/06/02 04:50:46;;;;;;;6.90;4.50;;;;;;;17.99;58.17;99082.16;233486;1217;138890;-58
2022/06/02 04:56:21;;;;;;;7.10;4.10;;;;;;;18.03;58.25;99084.33;233438;1217;138873;-61
2022/06/02 05:02:01;;;;;;;6.10;3.90;;;;;;;18.01;58.28;99084.48;233507;1217;138638;-63
2022/06/02 05:07:27;;;;;;;7.00;5.00;;;;;;;17.96;58.39;99091.92;233271;1217;138645;-62
2022/06/02 05:12:52;;;;;;;6.30;4.50;;;;;;;17.86;58.52;99087.33;233364;1217;139070;-62
2022/06/02 05:17:57;;;;;;;6.00;4.30;;;;;;;17.85;58.56;99091.88;233347;1217;139025;-64
2022/06/02 05:23:28;;;;;;;10.90;5.20;;;;;;;17.89;58.86;99104.97;233449;1217;139724;-62
2022/06/02 05:29:08;;;;;;;9.00;5.00;;;;;;;17.95;59.16;99107.33;233412;1217;139949;-61
2022/06/02 05:34:49;;;;;;;7.30;5.50;;;;;;;18.00;59.48;99109.94;233337;1217;139162;-63
2022/06/02 05:39:55;;;;;;;6.20;4.60;;;;;;;17.97;59.49;99110.36;233261;1219;138658;-61
2022/06/02 05:45:17;;;;;;;;;;;;;;;17.96;59.61;99106.48;233412;1217;138885;-63
2022/06/02 05:50:29;;;;;;;8.00;4.30;;;;;;;18.06;59.65;99114.74;233591;1217;126442;-62
2022/06/02 05:56:03;;;;;;;7.30;4.60;;;;;;;18.15;59.79;99115.30;233499;1217;139395;-62
2022/06/02 06:01:27;;;;;;;6.40;4.40;;;;;;;18.32;59.82;99123.48;233531;1217;140022;-64
2022/06/02 06:06:42;;;;;;;9.00;5.30;;;;;;;18.41;59.80;99129.42;233569;1215;139572;-60
2022/06/02 06:11:51;;;;;;;6.60;4.60;;;;;;;18.45;59.66;99122.77;233555;1217;138990;-60
2022/06/02 06:17:06;;;;;;;6.00;4.50;;;;;;;18.50;59.88;99135.30;233510;1215;139392;-62
2022/06/02 06:22:12;;;;;;;7.40;4.20;;;;;;;18.51;59.83;99147.08;233461;1217;139259;-63
2022/06/02 06:27:39;;;;;;;7.30;4.20;;;;;;;18.49;59.68;99147.38;233408;1217;139817;-62
2022/06/02 06:33:10;;;;;;;5.90;3.90;;;;;;;18.62;59.75;99143.30;233271;1217;139665;-64
2022/06/02 06:38:25;;;;;;;7.00;4.30;;;;;;;18.76;59.79;99151.52;233451;1217;138521;-64
2022/06/02 06:43:53;;;;;;;6.90;4.10;;;;;;;18.84;59.66;99156.95;233483;1217;139417;-62
2022/06/02 06:49:09;;;;;;;4.00;3.60;;;;;;;18.93;59.47;99163.48;233199;1217;139261;-64
2022/06/02 06:54:52;;;;;;;4.30;2.60;;;;;;;18.98;59.23;99168.89;233518;1217;138975;-65
2022/06/02 07:00:01;;;;;;;3.70;2.90;;;;;;;19.05;58.87;99171.97;233538;1215;138772;-64
2022/06/02 07:05:17;;;;;;;5.60;3.30;;;;;;;19.10;58.86;99173.71;233298;1217;139904;-60
2022/06/02 07:10:41;;;;;;;4.70;3.10;;;;;;;19.21;58.70;99186.13;233433;1217;139243;-62
2022/06/02 07:15:52;;;;;;;5.60;3.10;;;;;;;19.29;58.55;99187.33;233446;1217;139715;-63
2022/06/02 07:21:17;;;;;;;4.80;3.00;;;;;;;19.43;58.51;99189.09;233527;1217;139584;-63
2022/06/02 07:26:35;;;;;;;5.60;3.40;;;;;;;19.58;58.33;99190.42;233491;1215;139266;-63
2022/06/02 07:31:57;;;;;;;10.50;3.10;;;;;;;19.68;57.97;99187.52;233418;1217;139332;-63
2022/06/02 07:37:39;;;;;;;5.60;3.00;;;;;;;19.73;57.81;99188.91;233407;1218;138909;-64
2022/06/02 07:42:54;;;;;;;5.80;2.60;;;;;;;19.86;57.81;99194.27;233435;1217;139455;-63
2022/06/02 07:48:22;;;;;;;5.40;3.10;;;;;;;19.93;57.71;99193.92;233530;1217;139514;-63
2022/06/02 07:53:42;;;;;;;2.30;1.60;;;;;;;20.04;57.47;99204.88;233455;1217;139691;-62
2022/06/02 07:59:13;;;;;;;5.80;1.80;;;;;;;20.05;56.73;99214.52;233551;1217;138537;-62
2022/06/02 08:04:21;;;;;;;2.90;1.80;;;;;;;20.02;56.32;99211.52;233557;1215;139154;-60
2022/06/02 08:09:58;;;;;;;2.70;1.90;;;;;;;20.10;56.25;99224.50;233551;1217;138762;-62
2022/06/02 08:15:26;;;;;;;4.90;1.80;;;;;;;20.13;56.04;99233.76;233348;1217;139360;-62
2022/06/02 08:20:38;;;;;;;5.80;2.10;;;;;;;20.15;55.83;99233.95;233122;1217;139432;-61
2022/06/02 08:25:57;;;;;;;3.60;2.50;;;;;;;20.22;55.89;99242.70;233597;1217;139507;-58
2022/06/02 08:31:06;;;;;;;4.70;2.50;;;;;;;20.32;55.87;99248.56;233496;1216;139340;-61
2022/06/02 08:36:17;;;;;;;7.70;2.60;;;;;;;20.38;55.88;99244.41;233452;1217;139099;-65
2022/06/02 08:41:31;;;;;;;6.20;2.30;;;;;;;20.46;55.69;99254.95;233420;1217;139146;-61
2022/06/02 08:47:06;;;;;;;3.50;2.60;;;;;;;20.46;55.32;99258.92;233361;1217;139231;-61
2022/06/02 08:52:43;;;;;;;5.30;2.30;;;;;;;20.55;55.15;99258.45;233475;1217;139028;-64
2022/06/02 08:58:18;;;;;;;5.40;2.60;;;;;;;20.65;54.87;99257.94;233005;1217;139329;-62
2022/06/02 09:03:45;;;;;;;5.00;2.60;;;;;;;20.72;54.54;99253.80;232583;1217;139569;-62
2022/06/02 09:09:07;;;;;;;3.60;2.70;;;;;;;20.76;54.39;99260.64;233099;1217;138977;-62
2022/06/02 09:14:31;;;;;;;4.70;2.40;;;;;;;20.87;54.38;99259.22;233340;1217;139246;-63
2022/06/02 09:19:42;;;;;;;3.50;2.60;;;;;;;21.02;54.23;99262.67;233347;1218;138954;-64
2022/06/02 09:25:08;;;;;;;5.30;2.70;;;;;;;21.22;54.08;99268.54;233379;1217;139241;-62
2022/06/02 09:30:19;;;;;;;3.60;3.00;;;;;;;21.41;53.73;99260.29;233543;1217;139279;-61
2022/06/02 09:35:29;;;;;;;4.10;2.80;;;;;;;21.62;53.48;99266.66;233519;1217;138940;-61
2022/06/02 09:41:07;;;;;;;6.20;2.70;;;;;;;21.68;53.19;99282.30;233637;1217;139013;-62
2022/06/02 09:46:23;;;;;;;3.20;2.60;;;;;;;21.61;52.64;99290.91;233567;1217;139324;-62
2022/06/02 09:51:57;;;;;;;9.10;3.50;;;;;;;21.52;52.12;99292.18;233541;1217;138743;-61
2022/06/02 10:03:01;;;;;;;5.60;4.10;;;;;;;21.28;52.47;99296.67;233547;1217;139268;-62
2022/06/02 10:08:42;;;;;;;6.80;4.00;;;;;;;21.43;52.55;99301.05;233415;1217;139176;-61
2022/06/02 10:13:54;;;;;;;7.70;5.40;;;;;;;21.57;52.31;99299.80;233349;1217;139492;-60
2022/06/02 10:19:33;;;;;;;10.00;4.90;;;;;;;21.74;52.32;99300.11;233429;1217;140745;-60
2022/06/02 10:25:38;;;;;;;9.60;4.70;;;;;;;22.04;52.11;99307.61;233377;1217;139441;-60
2022/06/02 10:30:49;;;;;;;4.60;4.20;;;;;;;22.24;51.81;99301.91;233068;1217;139239;-60
2022/06/02 10:36:28;;;;;;;5.20;3.70;;;;;;;22.53;51.82;99301.05;233400;1217;139556;-60
2022/06/02 10:41:53;;;;;;;6.50;3.50;;;;;;;22.78;50.98;99305.30;233380;1217;139005;-59
2022/06/02 10:47:31;;;;;;;5.10;3.50;;;;;;;22.96;50.64;99301.15;233420;1217;139795;-60
2022/06/02 10:52:39;;;;;;;6.20;4.00;;;;;;;23.06;50.34;99295.52;233409;1217;140227;-60
2022/06/02 10:58:13;;;;;;;7.70;3.90;;;;;;;22.93;49.95;99304.92;233348;1217;139796;-60
2022/06/02 11:03:41;;;;;;;4.50;3.50;;;;;;;22.79;49.80;99307.56;233362;1217;139138;-60
2022/06/02 11:09:05;;;;;;;4.70;3.50;;;;;;;22.80;50.15;99306.89;232983;1217;138815;-59
2022/06/02 11:14:18;;;;;;;4.50;3.40;;;;;;;23.00;50.26;99298.42;233332;1217;139388;-60
2022/06/02 11:19:40;;;;;;;6.20;3.70;;;;;;;23.22;50.34;99294.16;233415;1217;138678;-60
2022/06/02 11:25:05;;;;;;;6.70;3.60;;;;;;;23.28;49.66;99307.54;232925;1217;139413;-59
2022/06/02 11:30:14;;;;;;;5.70;3.00;;;;;;;23.20;49.40;99313.54;233312;1217;138938;-59
2022/06/02 11:35:31;;;;;;;6.60;3.10;;;;;;;23.05;49.17;99309.44;233371;1217;140016;-60
2022/06/02 11:40:41;;;;;;;5.20;3.50;;;;;;;23.06;49.37;99302.99;233420;1217;139458;-60
2022/06/02 11:46:01;;;;;;;4.60;2.90;;;;;;;23.15;48.96;99302.18;233385;1217;138999;-59
2022/06/02 11:51:43;;;;;;;6.70;2.80;;;;;;;23.42;49.09;99305.33;233454;1217;139849;-60
2022/06/02 11:57:17;;;;;;;3.90;2.80;;;;;;;23.76;48.82;99308.77;233351;1217;139539;-61
2022/06/02 12:03:05;;;;;;;6.90;2.40;;;;;;;23.85;48.06;99311.73;233305;1217;140965;-60
2022/06/02 12:08:42;;;;;;;4.00;2.30;;;;;;;23.69;47.25;99324.38;233376;1217;139505;-60
2022/06/02 12:14:04;;;;;;;6.30;2.50;;;;;;;23.73;46.75;99331.63;233400;1217;138946;-61
2022/06/02 12:19:22;;;;;;;2.60;2.10;;;;;;;23.62;46.00;99330.23;233407;1217;139719;-61
2022/06/02 12:24:44;;;;;;;2.80;1.80;;;;;;;23.85;45.95;99331.73;233380;1217;139173;-59
2022/06/02 12:30:08;;;;;;;4.10;2.30;;;;;;;24.07;45.53;99333.13;233402;1217;140692;-60
2022/06/02 12:35:37;;;;;;;6.40;3.20;;;;;;;24.20;44.87;99331.73;233501;1217;139625;-60
2022/06/02 12:40:52;;;;;;;5.80;2.20;;;;;;;24.55;45.03;99324.19;233406;1217;138821;-60
2022/06/02 12:46:23;;;;;;;3.10;2.10;;;;;;;24.92;44.25;99323.95;233486;1217;138771;-61
2022/06/02 12:51:46;;;;;;;2.90;2.10;;;;;;;25.12;43.14;99334.50;233383;1217;138910;-59
2022/06/02 12:57:10;;;;;;;6.60;2.40;;;;;;;25.35;42.53;99335.38;233349;1217;139470;-61
2022/06/02 13:02:33;;;;;;;5.50;2.20;;;;;;;25.53;42.02;99332.86;233380;1217;139288;-61
2022/06/02 13:07:58;;;;;;;4.30;2.30;;;;;;;25.87;41.81;99331.88;233331;1217;139447;-59
2022/06/02 13:13:30;;;;;;;4.70;2.20;;;;;;;26.09;41.55;99325.87;233358;1217;142507;-60
2022/06/02 13:18:36;;;;;;;3.90;1.80;;;;;;;26.27;40.85;99323.95;233466;1217;139314;-60
2022/06/02 13:24:17;;;;;;;3.20;1.70;;;;;;;26.44;39.83;99326.45;233544;1217;138732;-59
2022/06/02 13:29:50;;;;;;;2.60;1.80;;;;;;;26.68;39.47;99326.80;233432;1217;139147;-59
2022/06/02 13:35:11;;;;;;;3.40;1.80;;;;;;;26.83;38.81;99330.00;233507;1217;139624;-59
2022/06/02 13:40:48;;;;;;;7.10;2.00;;;;;;;26.63;38.21;99335.99;233445;1217;139201;-60
2022/06/02 13:46:19;;;;;;;3.40;2.00;;;;;;;26.16;37.63;99330.70;233411;1217;138620;-60
2022/06/02 13:51:43;;;;;;;5.60;1.70;;;;;;;25.66;37.49;99337.65;233507;1217;139124;-60
2022/06/02 13:57:31;;;;;;;5.90;1.80;;;;;;;25.50;38.11;99331.35;233467;1217;138862;-60
2022/06/02 14:02:34;;;;;;;7.60;1.70;;;;;;;25.81;38.23;99321.70;233418;1217;139077;-61
2022/06/02 14:08:01;;;;;;;3.20;1.60;;;;;;;26.00;37.85;99313.73;233448;1217;139765;-61
2022/06/02 14:13:13;;;;;;;9.40;1.80;;;;;;;26.35;37.65;99322.54;233317;1217;139887;-59
2022/06/02 14:18:38;;;;;;;4.40;1.60;;;;;;;26.50;37.41;99322.30;233349;1217;139067;-60
2022/06/02 14:23:52;;;;;;;;;;;;;;;26.49;36.28;99320.10;233378;1217;140753;-59
2022/06/02 14:29:07;;;;;;;3.70;1.40;;;;;;;26.38;35.88;99319.56;233490;1217;125683;-61
2022/06/02 14:34:39;;;;;;;2.40;1.40;;;;;;;26.24;35.20;99316.90;233388;1217;139708;-60
2022/06/02 14:39:51;;;;;;;3.90;1.30;;;;;;;26.11;34.99;99319.48;233321;1217;139719;-61
2022/06/02 14:45:02;;;;;;;2.30;1.50;;;;;;;25.97;34.68;99321.89;233532;1217;139186;-60
2022/06/02 14:50:49;;;;;;;3.30;1.50;;;;;;;25.76;34.34;99318.77;233362;1217;138449;-61
2022/06/02 14:56:03;;;;;;;5.00;2.40;;;;;;;25.49;34.28;99318.86;232873;1221;140250;-60
2022/06/02 15:01:40;;;;;;;3.50;1.30;;;;;;;25.29;34.27;99331.78;233015;1217;139628;-60
2022/06/02 15:06:56;;;;;;;1.60;1.20;;;;;;;25.06;33.75;99324.83;233324;1217;139430;-60
2022/06/02 15:12:01;;;;;;;;;;;;;;;24.90;33.90;99317.02;233385;1217;139343;-60
2022/06/02 15:17:29;;;;;;;4.50;2.00;;;;;;;24.81;34.09;99313.48;233486;1215;125607;-59
2022/06/02 15:23:06;;;;;;;5.90;2.10;;;;;;;24.75;33.93;99312.34;233404;1217;139056;-59
2022/06/02 15:28:47;;;;;;;4.20;2.40;;;;;;;24.58;34.17;99308.41;233361;1217;138710;-61
2022/06/02 15:34:27;;;;;;;4.10;2.30;;;;;;;24.38;34.18;99315.45;233139;1218;139136;-60
2022/06/02 15:39:51;;;;;;;2.30;1.50;;;;;;;24.27;33.56;99322.48;233374;1217;139191;-61
2022/06/02 15:45:13;;;;;;;4.00;1.00;;;;;;;24.22;33.35;99317.54;233398;1217;139256;-61
2022/06/02 15:50:19;;;;;;;3.50;1.30;;;;;;;24.20;33.16;99317.55;233441;1217;139506;-61
2022/06/02 15:55:34;;;;;;;2.60;1.20;;;;;;;24.14;33.02;99323.62;233526;1216;140123;-61
2022/06/02 16:00:54;;;;;;;3.70;1.10;;;;;;;24.12;32.46;99337.36;233334;1217;138653;-60
2022/06/02 16:06:22;;;;;;;3.60;1.40;;;;;;;24.05;31.98;99333.71;233689;1217;139248;-60
2022/06/02 16:11:31;;;;;;;3.00;1.10;;;;;;;23.98;31.55;99335.23;233782;1217;140303;-60
2022/06/02 16:16:54;;;;;;;2.50;1.00;;;;;;;23.89;31.53;99331.25;233955;1216;141200;-60
2022/06/02 16:22:13;;;;;;;2.50;1.20;;;;;;;23.85;31.53;99332.20;233962;1216;138999;-63
2022/06/02 16:27:52;;;;;;;;;;;;;;;23.73;31.40;99341.93;233428;1217;139058;-62
2022/06/02 16:33:08;;;;;;;8.00;2.50;;;;;;;23.60;31.46;99341.48;234054;1215;125277;-60
2022/06/02 16:38:17;;;;;;;44.20;39.50;;;;;;;23.55;31.65;99343.40;233953;1216;138470;-61
2022/06/02 16:43:32;;;;;;;3.00;2.30;;;;;;;23.50;31.68;99347.49;233876;1217;139550;-60
2022/06/02 16:49:28;;;;;;;16.40;7.80;;;;;;;23.47;31.83;99353.81;233942;1217;139241;-59
2022/06/02 16:54:56;;;;;;;6.70;1.30;;;;;;;23.49;31.66;99354.06;233902;1217;139949;-60
2022/06/02 17:00:45;;;;;;;37.70;32.10;;;;;;;23.45;31.75;99354.95;234117;1217;139076;-61
2022/06/02 17:06:10;;;;;;;14.10;11.80;;;;;;;23.47;31.92;99369.40;233845;1217;138801;-61
2022/06/02 17:11:17;;;;;;;37.40;25.20;;;;;;;23.42;32.27;99366.52;233920;1217;139479;-61
2022/06/02 17:16:35;;;;;;;11.10;4.70;;;;;;;23.36;32.44;99360.65;233976;1216;139189;-60
2022/06/02 17:21:47;;;;;;;2.20;1.30;;;;;;;23.32;32.63;99358.90;233995;1217;139183;-62
2022/06/02 17:27:02;;;;;;;6.60;1.90;;;;;;;23.34;32.47;99366.06;233835;1217;138712;-59
2022/06/02 17:32:33;;;;;;;6.40;3.40;;;;;;;23.29;32.57;99374.59;233216;1217;140099;-60
2022/06/02 17:38:10;;;;;;;5.20;2.50;;;;;;;23.21;33.19;99380.96;234049;1217;139555;-59
2022/06/02 17:43:22;;;;;;;3.80;2.00;;;;;;;23.06;33.78;99385.12;234019;1217;139218;-60
2022/06/02 17:48:41;;;;;;;2.70;1.60;;;;;;;22.98;34.42;99389.66;233931;1217;139849;-60
2022/06/02 17:53:56;;;;;;;4.70;1.50;;;;;;;22.86;34.78;99388.12;234007;1217;138627;-62
2022/06/02 17:59:02;;;;;;;3.70;2.20;;;;;;;22.77;35.31;99385.71;233961;1217;140200;-61
2022/06/02 18:04:26;;;;;;;3.00;1.50;;;;;;;22.66;35.69;99386.36;233975;1217;138776;-59
2022/06/02 18:09:58;;;;;;;7.00;2.70;;;;;;;22.53;36.13;99392.92;233971;1217;139352;-59
2022/06/02 18:15:21;;;;;;;6.10;1.50;;;;;;;22.46;36.37;99405.84;234005;1217;139688;-62
2022/06/02 18:20:44;;;;;;;2.60;1.30;;;;;;;22.41;36.60;99412.16;233891;1216;138725;-59
2022/06/02 18:26:07;;;;;;;4.80;1.50;;;;;;;22.32;36.89;99407.09;233967;1217;139092;-59
2022/06/02 18:31:40;;;;;;;1.90;1.00;;;;;;;22.22;37.02;99411.27;233889;1217;139405;-60
2022/06/02 18:37:05;;;;;;;3.80;1.20;;;;;;;22.13;37.25;99416.13;233989;1217;139056;-61
2022/06/02 18:42:33;;;;;;;3.60;1.20;;;;;;;22.07;37.40;99431.10;233987;1217;139030;-60
2022/06/02 18:47:54;;;;;;;3.40;1.50;;;;;;;22.00;37.21;99444.03;232382;1215;139005;-60
2022/06/02 18:53:09;;;;;;;5.10;3.70;;;;;;;21.94;37.21;99457.85;232249;1217;138808;-57
2022/06/02 18:58:21;;;;;;;3.70;2.70;;;;;;;21.84;37.51;99468.81;233972;1217;139172;-58
2022/06/02 19:04:12;;;;;;;5.90;3.20;;;;;;;21.74;37.96;99479.56;233919;1217;140752;-60
2022/06/02 19:15:27;;;;;;;3.50;1.50;;;;;;;21.47;37.93;99480.21;233640;1217;151849;-60
2022/06/02 19:21:00;;;;;;;4.00;1.80;;;;;;;21.27;38.14;99486.42;233171;1217;139156;-60
2022/06/02 19:26:19;;;;;;;4.00;2.00;;;;;;;21.08;38.17;99490.48;233211;1217;139479;-61
2022/06/02 19:32:08;;;;;;;6.60;2.70;;;;;;;20.94;38.29;99490.63;233322;1217;139216;-59
2022/06/02 19:37:25;;;;;;;3.90;2.40;;;;;;;20.73;38.32;99496.83;233350;1217;139109;-61
2022/06/02 19:42:46;;;;;;;3.60;2.00;;;;;;;20.56;38.66;99499.94;233417;1217;140570;-60
2022/06/02 19:48:12;;;;;;;5.00;2.00;;;;;;;20.41;38.87;99510.20;233509;1217;139357;-60
2022/06/02 19:53:25;;;;;;;3.50;1.80;;;;;;;20.25;38.99;99513.65;233501;1217;138595;-60
2022/06/02 19:58:55;;;;;;;3.30;2.00;;;;;;;20.15;39.19;99528.69;233368;1217;141361;-60
2022/06/02 20:04:20;;;;;;;8.10;3.30;;;;;;;20.03;39.51;99532.27;233534;1217;139099;-62
2022/06/02 20:09:31;;;;;;;5.60;2.50;;;;;;;19.90;39.77;99539.23;233309;1217;139328;-59
2022/06/02 20:14:40;;;;;;;4.70;2.00;;;;;;;19.82;39.95;99543.25;233320;1217;138997;-60
2022/06/02 20:19:48;;;;;;;3.70;1.80;;;;;;;19.75;40.10;99546.98;233394;1217;139503;-59
2022/06/02 20:25:14;;;;;;;6.80;2.40;;;;;;;19.63;40.36;99560.99;233383;1217;140508;-59
2022/06/02 20:30:27;;;;;;;4.90;2.50;;;;;;;19.49;40.49;99567.80;233377;1217;139549;-61
2022/06/02 20:35:54;;;;;;;4.70;2.10;;;;;;;19.35;40.79;99563.52;233436;1217;139075;-60
2022/06/02 20:41:11;;;;;;;4.60;2.00;;;;;;;19.21;41.10;99567.65;233343;1217;139496;-60
2022/06/02 20:46:31;;;;;;;4.60;2.00;;;;;;;19.06;41.09;99576.20;233098;1217;139500;-60
2022/06/02 20:51:44;;;;;;;3.00;1.80;;;;;;;18.93;41.32;99578.79;232676;1217;138996;-59
2022/06/02 20:56:48;;;;;;;4.70;1.70;;;;;;;18.83;41.27;99580.52;233189;1217;139364;-61
2022/06/02 21:01:56;;;;;;;3.40;1.90;;;;;;;18.74;41.39;99586.78;233152;1217;140122;-59
2022/06/02 21:07:08;;;;;;;4.00;1.90;;;;;;;18.63;41.72;99581.58;234052;1217;139356;-59
2022/06/02 21:12:17;;;;;;;3.80;2.00;;;;;;;18.57;41.93;99579.53;233279;1217;139203;-58
2022/06/02 21:32:30;;;;;;;6.60;2.10;;;;;;;18.91;41.83;99597.36;230838;1233;636339;-58
2022/06/02 21:37:39;;;;;;;5.20;2.30;;;;;;;18.65;42.00;99598.64;233593;1222;138728;-60
2022/06/02 21:42:52;;;;;;;4.60;2.30;;;;;;;18.39;42.19;99593.71;233673;1222;138241;-61
2022/06/02 21:48:18;;;;;;;4.00;2.10;;;;;;;18.20;42.40;99598.88;233673;1222;138342;-60
2022/06/02 21:53:38;;;;;;;5.30;2.10;;;;;;;18.03;42.77;99596.60;232215;1223;137780;-60
2022/06/02 21:58:55;;;;;;;3.20;2.10;;;;;;;17.93;43.32;99594.86;233200;1224;137963;-61
2022/06/02 22:04:09;;;;;;;4.70;2.10;;;;;;;17.87;43.43;99591.65;233635;1222;137730;-61
2022/06/02 22:09:22;;;;;;;4.50;1.90;;;;;;;17.83;43.30;99598.27;233618;1222;138075;-59
2022/06/02 22:14:42;;;;;;;3.30;1.80;;;;;;;17.77;43.69;99601.98;233505;1222;137967;-59
2022/06/02 22:20:09;;;;;;;3.40;2.00;;;;;;;17.67;43.73;99604.19;233474;1222;138261;-60
2022/06/02 22:25:27;;;;;;;5.60;2.30;;;;;;;17.57;43.69;99606.07;233214;1224;137871;-60
2022/06/02 22:30:46;;;;;;;4.60;2.50;;;;;;;17.50;44.05;99613.12;233252;1224;138746;-61
2022/06/02 22:35:56;;;;;;;5.90;3.10;;;;;;;17.40;44.31;99611.40;233582;1222;138765;-59
2022/06/02 22:41:28;;;;;;;8.40;3.80;;;;;;;17.40;44.69;99624.21;233335;1222;139061;-59
2022/06/02 22:46:52;;;;;;;7.90;3.90;;;;;;;17.26;45.28;99626.56;232470;1224;138671;-60
2022/06/02 22:52:23;;;;;;;8.10;3.60;;;;;;;17.03;45.56;99631.45;233207;1223;138036;-61
2022/06/02 22:57:39;;;;;;;4.90;3.40;;;;;;;16.81;45.88;99628.87;233654;1222;138323;-58
2022/06/02 23:03:15;;;;;;;5.30;3.40;;;;;;;16.64;46.25;99636.11;233132;1223;139565;-59
2022/06/02 23:08:32;;;;;;;6.30;3.30;;;;;;;16.49;46.54;99638.69;233412;1221;138176;-59
2022/06/02 23:13:47;;;;;;;9.50;3.60;;;;;;;16.37;47.02;99634.04;233663;1222;137767;-59
2022/06/02 23:19:00;;;;;;;9.20;4.60;;;;;;;16.26;47.23;99641.88;233587;1222;137802;-59
2022/06/02 23:24:45;;;;;;;8.90;4.20;;;;;;;16.18;47.68;99644.05;233166;1223;137880;-59
2022/06/02 23:30:03;;;;;;;8.80;4.60;;;;;;;16.12;48.08;99641.66;232253;1224;138750;-60
2022/06/02 23:35:20;;;;;;;18.30;4.60;;;;;;;16.02;48.39;99650.11;233538;1222;139009;-60
2022/06/02 23:40:23;;;;;;;19.80;4.90;;;;;;;15.95;48.46;99656.60;233054;1222;138978;-61
2022/06/02 23:45:40;;;;;;;14.80;4.90;;;;;;;15.88;48.65;99652.77;233490;1223;137896;-59
2022/06/02 23:51:09;;;;;;;11.50;5.10;;;;;;;15.82;48.75;99663.75;232657;1223;138619;-60
2022/06/02 23:56:31;;;;;;;9.80;4.50;;;;;;;15.72;49.06;99661.25;233067;1223;138574;-59
